createdAt,value
2018-06-05T00:01:45.875Z,19.20
2018-06-05T00:04:13.708Z,19.40
2018-06-05T00:06:41.528Z,19.20
2018-06-05T00:09:09.436Z,18.90
2018-06-05T00:11:37.288Z,19.20
2018-06-05T00:14:05.176Z,19.10
2018-06-05T00:16:32.977Z,18.90
2018-06-05T00:21:29.456Z,18.90
2018-06-05T00:23:57.322Z,18.90
2018-06-05T00:26:25.116Z,19.10
2018-06-05T00:28:53.067Z,19.00
2018-06-05T00:31:21.259Z,19.00
2018-06-05T00:33:49.131Z,18.90
2018-06-05T00:36:16.940Z,18.80
2018-06-05T00:38:45.001Z,18.80
2018-06-05T00:43:40.598Z,18.70
2018-06-05T00:46:08.524Z,18.80
2018-06-05T00:48:36.316Z,18.30
2018-06-05T00:51:14.309Z,18.50
2018-06-05T00:53:42.269Z,18.40
2018-06-05T00:56:10.138Z,18.20
2018-06-05T00:58:37.980Z,18.40
2018-06-05T01:01:05.785Z,18.20
2018-06-05T01:03:33.588Z,18.30
2018-06-05T01:06:01.374Z,18.20
2018-06-05T01:08:29.266Z,18.10
2018-06-05T01:10:57.041Z,18.40
2018-06-05T01:13:24.820Z,18.20
2018-06-05T01:15:52.599Z,18.00
2018-06-05T01:18:20.400Z,18.10
2018-06-05T01:20:49.217Z,18.00
2018-06-05T01:23:17.028Z,17.90
2018-06-05T01:25:44.817Z,18.10
2018-06-05T01:28:12.660Z,18.20
2018-06-05T01:30:40.488Z,18.10
2018-06-05T01:33:08.318Z,18.00
2018-06-05T01:35:36.150Z,18.00
2018-06-05T01:38:04.031Z,17.90
2018-06-05T01:40:31.918Z,17.90
2018-06-05T01:42:59.738Z,17.70
2018-06-05T01:45:27.582Z,18.00
2018-06-05T01:47:55.996Z,17.50
2018-06-05T01:50:23.809Z,17.50
2018-06-05T01:52:51.612Z,17.80
2018-06-05T01:55:19.440Z,17.90
2018-06-05T01:57:47.240Z,18.00
2018-06-05T02:00:15.056Z,17.90
2018-06-05T02:05:10.548Z,17.90
2018-06-05T02:07:38.382Z,18.00
2018-06-05T02:10:06.191Z,18.10
2018-06-05T02:12:34.046Z,18.10
2018-06-05T02:17:29.653Z,18.40
2018-06-05T02:19:57.470Z,18.10
2018-06-05T02:22:25.282Z,18.40
2018-06-05T02:24:53.052Z,18.30
2018-06-05T02:27:20.840Z,18.00
2018-06-05T02:29:48.621Z,18.00
2018-06-05T02:32:16.409Z,18.20
2018-06-05T02:34:44.206Z,17.90
2018-06-05T02:37:12.038Z,18.20
2018-06-05T02:42:14.232Z,18.10
2018-06-05T02:44:42.052Z,18.30
2018-06-05T02:47:09.849Z,18.20
2018-06-05T02:52:05.312Z,18.00
2018-06-05T02:54:33.132Z,18.00
2018-06-05T02:57:00.924Z,18.00
2018-06-05T03:04:24.126Z,17.90
2018-06-05T03:06:51.939Z,18.00
2018-06-05T03:09:19.767Z,18.30
2018-06-05T03:11:47.607Z,18.30
2018-06-05T03:14:15.443Z,18.40
2018-06-05T03:16:43.212Z,18.20
2018-06-05T03:19:11.029Z,18.10
2018-06-05T03:21:38.800Z,18.20
2018-06-05T03:24:06.651Z,18.00
2018-06-05T03:26:34.450Z,18.40
2018-06-05T03:29:02.285Z,18.00
2018-06-05T03:31:30.085Z,18.10
2018-06-05T03:33:57.845Z,18.10
2018-06-05T03:36:25.663Z,18.00
2018-06-05T03:38:53.469Z,18.70
2018-06-05T03:41:21.261Z,18.60
2018-06-05T03:43:49.131Z,18.20
2018-06-05T03:46:16.962Z,18.40
2018-06-05T03:48:44.796Z,18.40
2018-06-05T03:51:12.590Z,18.60
2018-06-05T03:53:40.355Z,18.30
2018-06-05T03:56:08.161Z,18.40
2018-06-05T03:58:35.924Z,18.40
2018-06-05T04:01:03.685Z,18.60
2018-06-05T04:03:31.520Z,18.60
2018-06-05T04:05:59.360Z,18.00
2018-06-05T04:08:27.182Z,18.40
2018-06-05T04:10:54.955Z,18.60
2018-06-05T04:13:22.779Z,18.50
2018-06-05T04:15:50.648Z,18.60
2018-06-05T04:18:18.443Z,18.50
2018-06-05T04:20:46.204Z,18.60
2018-06-05T04:23:13.979Z,18.60
2018-06-05T04:25:41.761Z,18.10
2018-06-05T04:28:09.554Z,18.70
2018-06-05T04:30:37.312Z,18.50
2018-06-05T04:38:00.332Z,18.60
2018-06-05T04:40:28.132Z,18.70
2018-06-05T04:42:55.861Z,18.60
2018-06-05T04:45:23.658Z,18.40
2018-06-05T04:47:51.468Z,18.50
2018-06-05T04:50:19.176Z,18.50
2018-06-05T04:52:47.012Z,18.60
2018-06-05T04:55:14.788Z,18.70
2018-06-05T04:57:42.618Z,18.70
2018-06-05T05:00:10.404Z,18.70
2018-06-05T05:02:38.174Z,18.60
2018-06-05T05:05:06.047Z,18.70
2018-06-05T05:07:33.840Z,18.60
2018-06-05T05:10:01.639Z,18.60
2018-06-05T05:12:29.415Z,18.50
2018-06-05T05:14:57.209Z,18.60
2018-06-05T05:17:25.007Z,18.70
2018-06-05T05:19:52.820Z,18.50
2018-06-05T05:22:20.677Z,18.80
2018-06-05T05:24:48.520Z,18.70
2018-06-05T05:27:16.304Z,19.10
2018-06-05T05:29:44.119Z,19.10
2018-06-05T05:32:11.903Z,19.20
2018-06-05T05:34:39.731Z,19.20
2018-06-05T05:37:08.344Z,19.50
2018-06-05T05:39:36.150Z,19.10
2018-06-05T05:44:31.678Z,19.00
2018-06-05T05:46:59.515Z,18.70
2018-06-05T05:49:27.314Z,18.80
2018-06-05T05:51:55.179Z,19.10
2018-06-05T05:59:18.356Z,19.10
2018-06-05T06:01:46.129Z,19.60
2018-06-05T06:06:41.596Z,19.30
2018-06-05T06:09:09.373Z,19.50
2018-06-05T06:11:37.225Z,20.10
2018-06-05T06:14:05.206Z,19.60
2018-06-05T06:16:32.976Z,20.00
2018-06-05T06:19:00.763Z,19.80
2018-06-05T06:21:28.562Z,19.70
2018-06-05T06:23:56.392Z,19.60
2018-06-05T06:26:24.160Z,19.30
2018-06-05T06:28:51.980Z,19.60
2018-06-05T06:31:19.841Z,19.70
2018-06-05T06:33:48.712Z,19.60
2018-06-05T06:38:44.172Z,19.80
2018-06-05T06:41:12.044Z,20.00
2018-06-05T06:43:39.861Z,19.80
2018-06-05T06:46:07.672Z,19.90
2018-06-05T06:48:35.688Z,20.20
2018-06-05T06:51:04.556Z,20.00
2018-06-05T06:53:32.373Z,20.30
2018-06-05T06:56:00.172Z,20.10
2018-06-05T06:58:27.999Z,19.90
2018-06-05T07:00:55.796Z,19.70
2018-06-05T07:03:23.595Z,19.90
2018-06-05T07:05:51.359Z,20.40
2018-06-05T07:08:19.160Z,21.00
2018-06-05T07:10:47.075Z,20.80
2018-06-05T07:13:14.892Z,21.30
2018-06-05T07:15:42.759Z,21.40
2018-06-05T07:18:10.585Z,21.20
2018-06-05T07:20:38.424Z,21.00
2018-06-05T07:23:06.199Z,20.90
2018-06-05T07:25:34.023Z,20.60
2018-06-05T07:30:29.523Z,20.90
2018-06-05T07:32:57.277Z,21.20
2018-06-05T07:35:25.048Z,20.70
2018-06-05T07:37:52.881Z,21.10
2018-06-05T07:40:20.740Z,20.80
2018-06-05T07:42:48.555Z,21.20
2018-06-05T07:45:16.380Z,21.80
2018-06-05T07:47:44.182Z,21.10
2018-06-05T07:50:11.966Z,20.90
2018-06-05T07:57:35.203Z,20.60
2018-06-05T08:00:03.649Z,21.10
2018-06-05T08:04:59.282Z,21.50
2018-06-05T08:09:54.770Z,21.40
2018-06-05T08:12:22.570Z,21.50
2018-06-05T08:17:18.047Z,22.10
2018-06-05T08:19:45.904Z,22.30
2018-06-05T08:22:13.733Z,22.40
2018-06-05T08:27:09.208Z,22.30
2018-06-05T08:29:37.939Z,21.80
2018-06-05T08:34:37.955Z,22.20
2018-06-05T08:37:05.753Z,22.60
2018-06-05T08:42:01.253Z,22.30
2018-06-05T08:44:29.013Z,22.60
2018-06-05T08:46:56.830Z,22.40
2018-06-05T08:49:24.552Z,22.60
2018-06-05T08:51:52.303Z,22.50
2018-06-05T08:54:20.152Z,22.30
2018-06-05T08:56:47.894Z,22.30
2018-06-05T08:59:15.662Z,22.30
2018-06-05T09:01:43.436Z,22.30
2018-06-05T09:04:11.241Z,22.10
2018-06-05T09:06:39.022Z,22.30
2018-06-05T09:09:07.857Z,22.70
2018-06-05T09:11:35.678Z,22.80
2018-06-05T09:16:31.176Z,22.30
2018-06-05T09:18:58.988Z,22.30
2018-06-05T09:21:26.806Z,22.60
2018-06-05T09:23:54.618Z,23.20
2018-06-05T09:28:50.070Z,22.50
2018-06-05T09:31:17.877Z,22.70
2018-06-05T09:33:45.666Z,22.70
2018-06-05T09:36:13.536Z,23.30
2018-06-05T09:41:08.994Z,23.30
2018-06-05T09:43:36.858Z,23.10
2018-06-05T09:46:04.689Z,23.30
2018-06-05T09:51:00.362Z,23.40
2018-06-05T09:53:28.206Z,23.60
2018-06-05T09:55:55.981Z,23.70
2018-06-05T09:58:23.913Z,23.90
2018-06-05T10:00:52.716Z,23.90
2018-06-05T10:03:21.108Z,24.10
2018-06-05T10:05:48.934Z,24.30
2018-06-05T10:08:16.751Z,24.70
2018-06-05T10:10:44.566Z,24.70
2018-06-05T10:13:12.432Z,25.00
2018-06-05T10:18:08.036Z,24.80
2018-06-05T10:20:35.861Z,24.80
2018-06-05T10:25:31.346Z,25.40
2018-06-05T10:27:59.270Z,25.50
2018-06-05T10:30:27.090Z,25.70
2018-06-05T10:35:22.594Z,26.00
2018-06-05T10:37:50.373Z,25.60
2018-06-05T10:40:18.153Z,25.50
2018-06-05T10:42:45.978Z,26.20
2018-06-05T10:45:13.776Z,26.70
2018-06-05T10:47:41.626Z,28.20
2018-06-05T10:50:09.494Z,28.40
2018-06-05T10:52:37.309Z,29.00
2018-06-05T10:55:05.084Z,28.70
2018-06-05T11:00:00.499Z,27.80
2018-06-05T11:04:55.984Z,26.70
2018-06-05T11:07:23.771Z,27.20
2018-06-05T11:09:51.533Z,28.80
2018-06-05T11:12:19.429Z,28.00
2018-06-05T11:14:47.192Z,28.20
2018-06-05T11:19:42.645Z,28.40
2018-06-05T11:22:10.462Z,29.60
2018-06-05T11:27:05.918Z,30.20
2018-06-05T11:29:33.685Z,29.20
2018-06-05T11:32:01.489Z,29.20
2018-06-05T11:34:29.295Z,28.80
2018-06-05T11:36:57.124Z,28.20
2018-06-05T11:39:24.852Z,29.50
2018-06-05T11:41:52.689Z,30.30
2018-06-05T11:44:20.522Z,31.10
2018-06-05T11:46:48.328Z,32.60
2018-06-05T11:49:16.164Z,32.80
2018-06-05T11:51:43.906Z,33.20
2018-06-05T11:54:11.773Z,32.10
2018-06-05T11:56:39.553Z,32.20
2018-06-05T11:59:07.397Z,32.30
2018-06-05T12:01:35.160Z,31.00
2018-06-05T12:04:03.017Z,30.40
2018-06-05T12:06:30.829Z,29.60
2018-06-05T12:08:58.651Z,30.10
2018-06-05T12:11:26.433Z,30.60
2018-06-05T12:13:54.216Z,30.80
2018-06-05T12:16:22.102Z,31.70
2018-06-05T12:18:49.911Z,31.60
2018-06-05T12:21:17.699Z,31.60
2018-06-05T12:23:45.492Z,31.60
2018-06-05T12:26:14.288Z,31.50
2018-06-05T12:31:09.741Z,31.20
2018-06-05T12:33:38.139Z,31.30
2018-06-05T12:36:06.087Z,31.40
2018-06-05T12:38:33.840Z,31.50
2018-06-05T12:48:30.322Z,30.20
2018-06-05T12:50:58.259Z,30.30
2018-06-05T12:53:26.071Z,29.80
2018-06-05T12:58:21.514Z,29.90
2018-06-05T13:00:49.440Z,29.70
2018-06-05T13:03:17.855Z,29.40
2018-06-05T13:05:45.625Z,29.00
2018-06-05T13:08:13.494Z,28.20
2018-06-05T13:10:41.903Z,28.60
2018-06-05T13:13:09.729Z,28.70
2018-06-05T13:15:37.524Z,29.20
2018-06-05T13:18:05.684Z,28.70
2018-06-05T13:20:33.457Z,27.90
2018-06-05T13:23:01.333Z,28.20
2018-06-05T13:25:29.055Z,28.70
2018-06-05T13:27:56.861Z,29.50
2018-06-05T13:30:25.316Z,29.40
2018-06-05T13:32:53.104Z,29.10
2018-06-05T13:35:20.911Z,28.90
2018-06-05T13:37:48.724Z,28.60
2018-06-05T13:40:16.466Z,28.70
2018-06-05T13:47:39.580Z,28.40
2018-06-05T13:50:07.358Z,28.40
2018-06-05T13:52:35.273Z,28.00
2018-06-05T13:55:03.065Z,27.90
2018-06-05T13:57:30.923Z,28.20
2018-06-05T13:59:59.000Z,27.90
2018-06-05T14:02:26.758Z,28.00
2018-06-05T14:07:22.185Z,27.60
2018-06-05T14:14:45.340Z,27.40
2018-06-05T14:17:13.126Z,27.70
2018-06-05T14:19:40.882Z,27.70
2018-06-05T14:22:08.684Z,27.50
2018-06-05T14:24:36.450Z,27.20
2018-06-05T14:27:04.226Z,27.60
2018-06-05T14:29:32.051Z,28.10
2018-06-05T14:31:59.772Z,28.20
2018-06-05T14:34:27.567Z,27.80
2018-06-05T14:36:55.359Z,27.90
2018-06-05T14:41:50.874Z,27.40
2018-06-05T14:44:18.682Z,27.50
2018-06-05T14:46:46.460Z,27.10
2018-06-05T14:49:14.198Z,27.30
2018-06-05T14:51:42.037Z,27.60
2018-06-05T14:54:09.919Z,27.40
2018-06-05T14:59:05.319Z,27.30
2018-06-05T15:01:33.063Z,27.20
2018-06-05T15:04:00.796Z,26.70
2018-06-05T15:06:28.579Z,26.90
2018-06-05T15:08:56.340Z,26.60
2018-06-05T15:11:24.084Z,26.70
2018-06-05T15:13:51.956Z,26.60
2018-06-05T15:16:19.702Z,26.60
2018-06-05T15:21:15.280Z,26.60
2018-06-05T15:23:43.029Z,26.50
2018-06-05T15:26:10.775Z,26.50
2018-06-05T15:28:38.518Z,26.00
2018-06-05T15:33:34.025Z,26.10
2018-06-05T15:36:02.279Z,26.20
2018-06-05T15:38:30.056Z,25.90
2018-06-05T15:40:57.811Z,26.30
2018-06-05T15:43:25.567Z,26.30
2018-06-05T15:45:53.407Z,26.30
2018-06-05T15:48:21.293Z,25.70
2018-06-05T15:50:49.115Z,26.00
2018-06-05T15:55:44.506Z,25.70
2018-06-05T15:58:12.425Z,25.60
2018-06-05T16:00:40.232Z,25.40
2018-06-05T16:03:08.021Z,25.60
2018-06-05T16:08:03.644Z,25.40
2018-06-05T16:10:31.452Z,25.70
2018-06-05T16:12:59.832Z,25.50
2018-06-05T16:15:28.421Z,25.40
2018-06-05T16:17:56.534Z,25.10
2018-06-05T16:20:25.655Z,24.90
2018-06-05T16:22:53.936Z,25.40
2018-06-05T16:25:21.747Z,25.10
2018-06-05T16:27:49.596Z,24.70
2018-06-05T16:30:17.403Z,24.90
2018-06-05T16:32:45.216Z,24.70
2018-06-05T16:35:13.063Z,24.80
2018-06-05T16:37:41.023Z,24.90
2018-06-05T16:42:37.109Z,24.70
2018-06-05T16:45:05.000Z,24.70
2018-06-05T16:47:32.839Z,24.90
2018-06-05T16:50:00.744Z,24.60
2018-06-05T16:52:28.607Z,24.70
2018-06-05T16:54:56.463Z,24.80
2018-06-05T16:57:24.273Z,24.00
2018-06-05T16:59:52.209Z,24.20
2018-06-05T17:02:19.996Z,24.30
2018-06-05T17:04:47.883Z,24.20
2018-06-05T17:12:11.202Z,24.00
2018-06-05T17:14:39.060Z,24.10
2018-06-05T17:17:06.979Z,23.60
2018-06-05T17:19:34.939Z,23.70
2018-06-05T17:22:02.765Z,23.70
2018-06-05T17:24:30.827Z,23.80
2018-06-05T17:29:26.364Z,23.70
2018-06-05T17:34:22.000Z,23.60
2018-06-05T17:36:49.887Z,23.60
2018-06-05T17:39:17.709Z,23.10
2018-06-05T17:41:45.602Z,23.30
2018-06-05T17:44:13.392Z,23.40
2018-06-05T17:46:41.208Z,23.50
2018-06-05T17:51:36.803Z,23.00
2018-06-05T17:54:04.719Z,23.10
2018-06-05T17:56:32.612Z,23.30
2018-06-05T17:59:00.423Z,23.00
2018-06-05T18:01:28.284Z,23.30
2018-06-05T18:03:56.358Z,23.20
2018-06-05T18:06:24.373Z,22.90
2018-06-05T18:08:52.243Z,23.10
2018-06-05T18:11:20.125Z,22.80
2018-06-05T18:13:47.992Z,23.10
2018-06-05T18:16:15.819Z,22.90
2018-06-05T18:18:44.453Z,23.10
2018-06-05T18:21:12.358Z,22.80
2018-06-05T18:23:40.360Z,22.50
2018-06-05T18:26:08.228Z,22.50
2018-06-05T18:28:36.109Z,22.50
2018-06-05T18:31:07.493Z,22.30
2018-06-05T18:33:37.106Z,22.50
2018-06-05T18:36:05.654Z,22.30
2018-06-05T18:38:33.605Z,22.20
2018-06-05T18:41:01.924Z,22.00
2018-06-05T18:43:30.005Z,22.10
2018-06-05T18:45:57.891Z,22.40
2018-06-05T18:50:54.656Z,22.30
2018-06-05T18:53:22.611Z,22.10
2018-06-05T18:58:18.293Z,21.80
2018-06-05T19:00:46.850Z,21.60
2018-06-05T19:03:14.843Z,21.70
2018-06-05T19:05:42.644Z,21.70
2018-06-05T19:08:10.781Z,21.20
2018-06-05T19:10:38.684Z,21.70
2018-06-05T19:15:42.299Z,21.20
2018-06-05T19:18:10.812Z,21.30
2018-06-05T19:23:06.479Z,20.80
2018-06-05T19:25:34.528Z,21.30
2018-06-05T19:28:02.631Z,21.20
2018-06-05T19:30:30.546Z,20.90
2018-06-05T19:32:58.490Z,21.20
2018-06-05T19:35:26.710Z,21.20
2018-06-05T19:37:54.629Z,21.20
2018-06-05T19:42:50.180Z,20.90
2018-06-05T19:47:45.803Z,20.90
2018-06-05T19:50:14.934Z,20.70
2018-06-05T19:52:42.925Z,21.00
2018-06-05T19:55:10.841Z,20.70
2018-06-05T19:57:38.738Z,20.70
2018-06-05T20:00:06.898Z,20.80
2018-06-05T20:02:34.849Z,20.50
2018-06-05T20:05:02.771Z,20.50
2018-06-05T20:07:30.690Z,20.30
2018-06-05T20:09:58.796Z,20.40
2018-06-05T20:12:26.752Z,20.10
2018-06-05T20:14:54.660Z,20.10
2018-06-05T20:17:22.492Z,20.40
2018-06-05T20:22:18.048Z,20.30
2018-06-05T20:24:45.893Z,20.10
2018-06-05T20:29:41.413Z,20.00
2018-06-05T20:32:09.515Z,20.10
2018-06-05T20:34:37.434Z,20.20
2018-06-05T20:37:05.622Z,20.10
2018-06-05T20:39:33.680Z,20.20
2018-06-05T20:42:01.521Z,19.80
2018-06-05T20:44:29.484Z,19.90
2018-06-05T20:46:57.908Z,19.50
2018-06-05T20:49:25.680Z,19.90
2018-06-05T20:51:54.164Z,19.70
2018-06-05T20:54:22.253Z,19.80
2018-06-05T20:56:54.032Z,19.40
2018-06-05T20:59:21.935Z,19.60
2018-06-05T21:01:49.847Z,19.50
2018-06-05T21:04:17.849Z,19.90
2018-06-05T21:06:45.972Z,19.50
2018-06-05T21:09:14.000Z,19.30
2018-06-05T21:11:42.762Z,19.50
2018-06-05T21:14:10.661Z,19.30
2018-06-05T21:16:38.473Z,19.30
2018-06-05T21:19:06.384Z,19.60
2018-06-05T21:21:34.240Z,19.50
2018-06-05T21:24:02.229Z,19.60
2018-06-05T21:26:30.450Z,19.20
2018-06-05T21:28:58.504Z,19.30
2018-06-05T21:31:26.636Z,19.30
2018-06-05T21:33:54.970Z,19.30
2018-06-05T21:36:22.822Z,19.50
2018-06-05T21:38:50.716Z,19.10
2018-06-05T21:41:18.533Z,19.10
2018-06-05T21:43:46.387Z,19.00
2018-06-05T21:46:14.561Z,19.10
2018-06-05T21:48:42.425Z,19.20
2018-06-05T21:51:10.788Z,19.00
2018-06-05T21:53:39.341Z,19.20
2018-06-05T21:56:07.305Z,19.00
2018-06-05T21:58:35.101Z,19.20
2018-06-05T22:01:03.104Z,18.60
2018-06-05T22:03:31.050Z,18.90
2018-06-05T22:05:59.416Z,18.60
2018-06-05T22:08:27.228Z,19.20
2018-06-05T22:10:55.075Z,18.80
2018-06-05T22:13:22.962Z,18.90
2018-06-05T22:15:51.033Z,18.90
2018-06-05T22:18:18.873Z,18.50
2018-06-05T22:20:46.775Z,18.80
2018-06-05T22:23:14.896Z,18.70
2018-06-05T22:28:10.512Z,18.30
2018-06-05T22:30:38.364Z,18.40
2018-06-05T22:33:06.515Z,18.40
2018-06-05T22:35:34.625Z,18.30
2018-06-05T22:38:02.640Z,18.40
2018-06-05T22:40:30.491Z,18.50
2018-06-05T22:42:58.456Z,18.30
2018-06-05T22:45:27.193Z,18.50
2018-06-05T22:47:55.205Z,18.20
2018-06-05T22:50:23.832Z,18.40
2018-06-05T22:52:51.654Z,18.30
2018-06-05T22:55:19.437Z,18.10
2018-06-05T22:57:47.231Z,18.40
2018-06-05T23:00:21.974Z,18.30
2018-06-05T23:02:49.778Z,18.10
2018-06-05T23:05:17.544Z,18.20
2018-06-05T23:07:45.328Z,18.10
2018-06-05T23:10:13.090Z,18.20
2018-06-05T23:12:40.858Z,18.30
2018-06-05T23:15:09.008Z,18.20
2018-06-05T23:20:04.425Z,18.30
2018-06-05T23:22:32.232Z,17.80
2018-06-05T23:24:59.984Z,17.60
2018-06-05T23:27:27.861Z,17.70
2018-06-05T23:29:55.656Z,18.10
2018-06-05T23:32:23.453Z,18.10
2018-06-05T23:34:51.217Z,18.10
2018-06-05T23:39:46.661Z,17.90
2018-06-05T23:42:14.425Z,17.60
2018-06-05T23:44:42.232Z,17.80
2018-06-05T23:47:10.008Z,17.60
2018-06-05T23:49:37.830Z,18.10
2018-06-05T23:52:05.758Z,17.60
2018-06-05T23:54:33.927Z,17.50
2018-06-05T23:57:01.684Z,17.70
2018-06-05T23:59:29.503Z,17.70
